Time;durP1;ratioP1;P1;durP2;ratioP2;P2;SDS_P1;SDS_P2;PMS_P1;PMS_P2;Temp;Humidity;BMP_temperature;BMP_pressure;BME280_temperature;BME280_humidity;BME280_pressure;Samples;Min_cycle;Max_cycle;Signal;HPM_P1;HPM_P2
2023/12/11 00:01:15;;;;;;;18.83;3.90;;;;;;;;;;6094064;23;20017;-88
2023/12/11 00:03:41;;;;;;;26.55;3.10;;;;;;;;;;6118484;23;20486;-88
2023/12/11 00:06:07;;;;;;;19.90;3.78;;;;;;;;;;6116310;23;20819;-89
2023/12/11 00:08:34;;;;;;;13.93;3.80;;;;;;;;;;6094627;23;20450;-88
2023/12/11 00:11:00;;;;;;;19.27;3.45;;;;;;;;;;6116379;23;20123;-88
2023/12/11 00:13:26;;;;;;;18.17;4.25;;;;;;;;;;6118080;23;20088;-89
2023/12/11 00:15:52;;;;;;;31.23;3.95;;;;;;;;;;6141279;23;20759;-88
2023/12/11 00:18:18;;;;;;;19.75;2.97;;;;;;;;;;6162295;23;20021;-88
2023/12/11 00:20:45;;;;;;;25.08;5.53;;;;;;;;;;6150677;23;20020;-88
2023/12/11 00:23:11;;;;;;;28.85;5.28;;;;;;;;;;6173027;23;20528;-88
2023/12/11 00:25:37;;;;;;;24.52;3.63;;;;;;;;;;6151550;23;20024;-88
2023/12/11 00:28:03;;;;;;;24.08;3.55;;;;;;;;;;6148630;23;20052;-88
2023/12/11 00:30:30;;;;;;;17.35;3.92;;;;;;;;;;6152934;23;20023;-88
2023/12/11 00:32:56;;;;;;;22.30;4.43;;;;;;;;;;6175371;23;20027;-88
2023/12/11 00:35:22;;;;;;;24.58;4.28;;;;;;;;;;6176742;23;20016;-88
2023/12/11 00:37:48;;;;;;;27.92;5.25;;;;;;;;;;6148988;23;20306;-88
2023/12/11 00:40:14;;;;;;;27.98;4.32;;;;;;;;;;6151223;23;20016;-88
2023/12/11 00:42:40;;;;;;;32.95;5.15;;;;;;;;;;6171388;23;20449;-88
2023/12/11 00:45:06;;;;;;;31.23;4.32;;;;;;;;;;6169272;23;20020;-88
2023/12/11 00:47:32;;;;;;;27.58;4.40;;;;;;;;;;6171966;23;20025;-88
2023/12/11 00:49:58;;;;;;;28.73;3.97;;;;;;;;;;6169319;23;20496;-89
2023/12/11 00:52:24;;;;;;;20.95;3.55;;;;;;;;;;6147863;23;20099;-89
2023/12/11 00:54:50;;;;;;;29.17;3.97;;;;;;;;;;6171582;23;20369;-88
2023/12/11 00:57:19;;;;;;;20.90;3.95;;;;;;;;;;6147504;23;20052;-88
2023/12/11 00:59:48;;;;;;;30.52;4.88;;;;;;;;;;6173558;23;20021;-88
2023/12/11 01:02:14;;;;;;;30.73;4.72;;;;;;;;;;6170005;23;20024;-88
2023/12/11 01:04:40;;;;;;;27.13;3.70;;;;;;;;;;6172326;23;20023;-88
2023/12/11 01:07:06;;;;;;;18.17;4.47;;;;;;;;;;6171634;23;20091;-88
2023/12/11 01:09:33;;;;;;;20.55;3.50;;;;;;;;;;6147742;23;20051;-88
2023/12/11 01:11:59;;;;;;;29.30;4.60;;;;;;;;;;6170764;23;20408;-88
2023/12/11 01:14:25;;;;;;;27.30;4.50;;;;;;;;;;6148956;23;20063;-89
2023/12/11 01:16:51;;;;;;;34.88;5.15;;;;;;;;;;6170645;23;20016;-89
2023/12/11 01:19:17;;;;;;;30.45;3.95;;;;;;;;;;6172414;23;20017;-88
2023/12/11 01:21:44;;;;;;;17.50;3.72;;;;;;;;;;6198713;23;20024;-88
2023/12/11 01:24:12;;;;;;;20.67;3.30;;;;;;;;;;6172736;23;20016;-88
2023/12/11 01:26:38;;;;;;;23.83;3.45;;;;;;;;;;6173126;23;20020;-88
2023/12/11 01:29:04;;;;;;;17.75;3.20;;;;;;;;;;6172098;23;20509;-88
2023/12/11 01:31:30;;;;;;;14.73;3.40;;;;;;;;;;6175143;23;20048;-88
2023/12/11 01:33:56;;;;;;;19.55;3.58;;;;;;;;;;6172676;23;20454;-88
2023/12/11 01:36:22;;;;;;;19.58;3.78;;;;;;;;;;6202696;23;20027;-88
2023/12/11 01:38:50;;;;;;;16.85;3.30;;;;;;;;;;6201909;23;20493;-88
2023/12/11 01:41:16;;;;;;;19.55;3.40;;;;;;;;;;6199586;23;20078;-88
2023/12/11 01:43:42;;;;;;;21.65;3.40;;;;;;;;;;6201041;23;20021;-88
2023/12/11 01:46:10;;;;;;;25.88;4.20;;;;;;;;;;6196617;23;20031;-88
2023/12/11 01:48:36;;;;;;;19.77;2.88;;;;;;;;;;6172649;23;20020;-88
2023/12/11 01:51:02;;;;;;;20.85;3.88;;;;;;;;;;6167952;23;20087;-89
2023/12/11 01:53:28;;;;;;;23.25;3.25;;;;;;;;;;6173540;23;20067;-88
2023/12/11 01:55:54;;;;;;;17.35;3.05;;;;;;;;;;6171546;23;20103;-88
2023/12/11 01:58:20;;;;;;;16.27;4.13;;;;;;;;;;6195853;23;20376;-88
2023/12/11 02:00:49;;;;;;;21.92;4.30;;;;;;;;;;6168642;23;20016;-88
2023/12/11 02:03:15;;;;;;;16.25;4.97;;;;;;;;;;6197702;23;20024;-88
2023/12/11 02:05:42;;;;;;;16.95;3.38;;;;;;;;;;6172174;23;20043;-88
2023/12/11 02:08:08;;;;;;;25.30;3.40;;;;;;;;;;6196976;23;20046;-88
2023/12/11 02:10:34;;;;;;;16.65;3.33;;;;;;;;;;6173948;23;20603;-88
2023/12/11 02:13:00;;;;;;;25.42;3.58;;;;;;;;;;6170356;23;20024;-87
2023/12/11 02:15:38;;;;;;;24.63;3.58;;;;;;;;;;6171406;23;20086;-88
2023/12/11 02:18:04;;;;;;;;;;;;;;;;;;6168642;23;20424;-88
2023/12/11 02:20:30;;;;;;;27.45;3.72;;;;;;;;;;6199510;23;19999;-88
2023/12/11 02:22:56;;;;;;;25.45;3.90;;;;;;;;;;6145299;23;20023;-88
2023/12/11 02:25:22;;;;;;;19.55;4.10;;;;;;;;;;6149287;23;20017;-88
2023/12/11 02:27:48;;;;;;;23.98;3.50;;;;;;;;;;6167702;23;20329;-88
2023/12/11 02:30:15;;;;;;;33.25;4.22;;;;;;;;;;6175229;23;20027;-88
2023/12/11 02:32:40;;;;;;;27.70;4.93;;;;;;;;;;6171771;23;20091;-88
2023/12/11 02:35:07;;;;;;;27.27;3.95;;;;;;;;;;6198402;23;20521;-88
2023/12/11 02:37:33;;;;;;;20.77;4.78;;;;;;;;;;6198362;23;20220;-88
2023/12/11 02:39:59;;;;;;;23.05;4.35;;;;;;;;;;6198010;23;20017;-88
2023/12/11 02:42:25;;;;;;;18.27;3.47;;;;;;;;;;6173293;23;20020;-88
2023/12/11 02:44:51;;;;;;;30.10;3.55;;;;;;;;;;6171865;23;20016;-88
2023/12/11 02:47:17;;;;;;;24.92;4.68;;;;;;;;;;6196333;23;20048;-87
2023/12/11 02:49:43;;;;;;;26.10;3.85;;;;;;;;;;6172629;23;20548;-88
2023/12/11 02:52:09;;;;;;;22.67;3.78;;;;;;;;;;6144480;23;20020;-88
2023/12/11 02:54:35;;;;;;;23.05;3.42;;;;;;;;;;6174613;23;20024;-88
2023/12/11 02:57:01;;;;;;;27.77;4.00;;;;;;;;;;6171853;23;20031;-88
2023/12/11 02:59:27;;;;;;;24.50;4.15;;;;;;;;;;6200054;23;20055;-88
2023/12/11 03:01:53;;;;;;;25.55;4.40;;;;;;;;;;6170985;23;20067;-88
2023/12/11 03:04:19;;;;;;;28.45;4.45;;;;;;;;;;6174499;23;20012;-88
2023/12/11 03:06:46;;;;;;;30.52;5.22;;;;;;;;;;6174208;23;20095;-88
2023/12/11 03:09:12;;;;;;;27.35;6.00;;;;;;;;;;6171315;23;20103;-88
2023/12/11 03:11:38;;;;;;;27.38;3.85;;;;;;;;;;6171955;23;20099;-87
2023/12/11 03:14:04;;;;;;;23.98;4.32;;;;;;;;;;6171634;23;20424;-88
2023/12/11 03:16:30;;;;;;;25.70;4.13;;;;;;;;;;6173938;23;20386;-88
2023/12/11 03:18:56;;;;;;;28.60;4.50;;;;;;;;;;6169916;23;20024;-88
2023/12/11 03:21:22;;;;;;;23.05;4.10;;;;;;;;;;6173428;23;20024;-88
2023/12/11 03:23:48;;;;;;;30.00;5.03;;;;;;;;;;6145709;23;20400;-88
2023/12/11 03:26:14;;;;;;;30.52;4.20;;;;;;;;;;6173429;23;20020;-88
2023/12/11 03:28:40;;;;;;;31.10;4.30;;;;;;;;;;6173939;23;20023;-88
2023/12/11 03:31:06;;;;;;;30.92;4.10;;;;;;;;;;6169940;23;20449;-88
2023/12/11 03:33:32;;;;;;;21.98;5.53;;;;;;;;;;6174218;23;20469;-89
2023/12/11 03:35:58;;;;;;;31.60;5.03;;;;;;;;;;6146750;23;20021;-88
2023/12/11 03:38:24;;;;;;;22.70;3.88;;;;;;;;;;6174454;23;20017;-89
2023/12/11 03:40:50;;;;;;;29.67;4.57;;;;;;;;;;6173106;23;20016;-88
2023/12/11 03:43:16;;;;;;;23.38;4.55;;;;;;;;;;6174399;23;20103;-88
2023/12/11 03:45:42;;;;;;;31.15;4.20;;;;;;;;;;6174785;23;20529;-88
2023/12/11 03:48:08;;;;;;;28.15;4.72;;;;;;;;;;6172018;23;20354;-88
2023/12/11 03:50:34;;;;;;;33.65;6.35;;;;;;;;;;6174591;23;20547;-88
2023/12/11 03:53:00;;;;;;;30.02;4.82;;;;;;;;;;6172286;23;20020;-88
2023/12/11 03:55:26;;;;;;;29.15;4.30;;;;;;;;;;6175779;23;20021;-88
2023/12/11 03:57:52;;;;;;;27.75;4.13;;;;;;;;;;6197889;23;20083;-89
2023/12/11 04:00:18;;;;;;;25.42;5.10;;;;;;;;;;6177206;23;20022;-88
2023/12/11 04:02:44;;;;;;;32.63;4.85;;;;;;;;;;6174784;23;20088;-88
2023/12/11 04:05:11;;;;;;;24.55;4.22;;;;;;;;;;6175305;23;20016;-88
2023/12/11 04:07:37;;;;;;;24.73;3.63;;;;;;;;;;6202998;23;20361;-88
2023/12/11 04:10:03;;;;;;;28.60;4.05;;;;;;;;;;6200529;23;20067;-88
2023/12/11 04:12:29;;;;;;;22.63;3.88;;;;;;;;;;6216378;23;20080;-88
2023/12/11 04:14:55;;;;;;;26.85;3.80;;;;;;;;;;6201807;23;20032;-88
2023/12/11 04:17:21;;;;;;;23.38;3.92;;;;;;;;;;6201198;23;20354;-89
2023/12/11 04:19:47;;;;;;;20.75;3.95;;;;;;;;;;6197934;23;20416;-89
2023/12/11 04:22:13;;;;;;;25.50;4.47;;;;;;;;;;6174743;23;20024;-88
2023/12/11 04:24:39;;;;;;;23.67;4.55;;;;;;;;;;6176546;23;20078;-88
2023/12/11 04:27:05;;;;;;;25.60;5.72;;;;;;;;;;6199282;23;20632;-88
2023/12/11 04:29:31;;;;;;;30.70;4.05;;;;;;;;;;6151600;23;20450;-88
2023/12/11 04:31:57;;;;;;;17.75;3.25;;;;;;;;;;6148099;23;20091;-88
2023/12/11 04:34:24;;;;;;;26.30;3.83;;;;;;;;;;6199180;23;20655;-88
2023/12/11 04:36:50;;;;;;;24.38;4.57;;;;;;;;;;6172000;23;20056;-88
2023/12/11 04:39:16;;;;;;;26.40;3.30;;;;;;;;;;6175477;23;20048;-88
2023/12/11 04:41:42;;;;;;;28.20;4.05;;;;;;;;;;6151278;23;20103;-88
2023/12/11 04:44:08;;;;;;;24.27;5.40;;;;;;;;;;6175198;23;20009;-88
2023/12/11 04:46:34;;;;;;;21.13;3.88;;;;;;;;;;6150623;23;20030;-88
2023/12/11 04:49:00;;;;;;;26.90;4.22;;;;;;;;;;6198736;23;20481;-88
2023/12/11 04:51:26;;;;;;;23.33;3.13;;;;;;;;;;6172066;23;20016;-88
2023/12/11 04:53:52;;;;;;;27.23;4.22;;;;;;;;;;6170907;23;20681;-88
2023/12/11 04:56:18;;;;;;;25.95;3.38;;;;;;;;;;6200538;23;20023;-88
2023/12/11 04:58:44;;;;;;;31.38;4.43;;;;;;;;;;6175701;23;20039;-88
2023/12/11 05:01:10;;;;;;;17.40;3.80;;;;;;;;;;6173688;23;20009;-88
2023/12/11 05:03:36;;;;;;;23.20;4.20;;;;;;;;;;6173479;23;20660;-88
2023/12/11 05:06:02;;;;;;;20.17;3.33;;;;;;;;;;6172950;23;20043;-88
2023/12/11 05:08:28;;;;;;;22.42;5.38;;;;;;;;;;6149917;23;20020;-88
2023/12/11 05:10:54;;;;;;;21.40;4.28;;;;;;;;;;6172502;23;20087;-88
2023/12/11 05:13:20;;;;;;;16.88;3.17;;;;;;;;;;6173561;23;20021;-88
2023/12/11 05:15:46;;;;;;;26.70;3.97;;;;;;;;;;6201334;23;20500;-88
2023/12/11 05:18:13;;;;;;;25.80;4.00;;;;;;;;;;6202448;23;20532;-87
2023/12/11 05:20:39;;;;;;;15.82;3.75;;;;;;;;;;6177952;23;20058;-88
2023/12/11 05:23:05;;;;;;;23.58;3.80;;;;;;;;;;6149212;23;20017;-88
2023/12/11 05:25:31;;;;;;;25.77;3.70;;;;;;;;;;6202183;23;20017;-88
2023/12/11 05:27:57;;;;;;;19.98;3.60;;;;;;;;;;6198466;23;20021;-88
2023/12/11 05:30:23;;;;;;;16.95;3.38;;;;;;;;;;6177266;23;20016;-87
2023/12/11 05:32:48;;;;;;;20.58;4.57;;;;;;;;;;6150542;23;20399;-88
2023/12/11 05:35:15;;;;;;;20.60;2.95;;;;;;;;;;6204589;23;20022;-88
2023/12/11 05:37:41;;;;;;;21.92;3.97;;;;;;;;;;6152017;23;20016;-88
2023/12/11 05:40:07;;;;;;;22.05;3.55;;;;;;;;;;6201214;23;20086;-88
2023/12/11 05:42:33;;;;;;;18.50;4.70;;;;;;;;;;6201742;23;20024;-88
2023/12/11 05:44:59;;;;;;;29.52;4.50;;;;;;;;;;6170631;23;20092;-88
2023/12/11 05:47:25;;;;;;;22.30;3.25;;;;;;;;;;6202107;23;20040;-88
2023/12/11 05:49:51;;;;;;;19.85;4.18;;;;;;;;;;6147630;23;20096;-88
2023/12/11 05:52:17;;;;;;;36.92;5.53;;;;;;;;;;6174193;23;20031;-88
2023/12/11 05:54:43;;;;;;;26.33;4.38;;;;;;;;;;6126224;23;20028;-88
2023/12/11 05:57:09;;;;;;;21.92;3.20;;;;;;;;;;6169866;23;20477;-87
2023/12/11 05:59:36;;;;;;;22.98;3.85;;;;;;;;;;6199288;23;20024;-87
2023/12/11 06:02:02;;;;;;;17.75;2.90;;;;;;;;;;6169971;23;20485;-88
2023/12/11 06:04:28;;;;;;;20.55;4.32;;;;;;;;;;6172320;23;20016;-88
2023/12/11 06:06:54;;;;;;;30.23;3.55;;;;;;;;;;6194249;23;20111;-87
2023/12/11 06:09:20;;;;;;;21.60;3.70;;;;;;;;;;6174422;23;20020;-87
2023/12/11 06:11:46;;;;;;;18.60;3.13;;;;;;;;;;6172477;23;20102;-87
2023/12/11 06:14:12;;;;;;;14.35;2.58;;;;;;;;;;6176597;23;20028;-87
2023/12/11 06:16:38;;;;;;;14.75;4.00;;;;;;;;;;6176917;23;20020;-87
2023/12/11 06:19:04;;;;;;;13.65;3.28;;;;;;;;;;6171305;23;20036;-87
2023/12/11 06:21:30;;;;;;;19.38;3.60;;;;;;;;;;6201781;23;20060;-88
2023/12/11 06:23:56;;;;;;;26.13;4.60;;;;;;;;;;6172346;23;20382;-87
2023/12/11 06:26:25;;;;;;;30.80;3.95;;;;;;;;;;6174296;23;20068;-88
2023/12/11 06:28:51;;;;;;;21.77;3.97;;;;;;;;;;6146909;23;20104;-88
2023/12/11 06:31:17;;;;;;;24.67;3.33;;;;;;;;;;6126676;23;20435;-87
2023/12/11 06:33:43;;;;;;;18.67;2.70;;;;;;;;;;6122412;23;20428;-88
2023/12/11 06:36:10;;;;;;;17.38;2.92;;;;;;;;;;6171480;23;20020;-88
2023/12/11 06:38:36;;;;;;;20.45;3.50;;;;;;;;;;6149598;23;20020;-88
2023/12/11 06:41:02;;;;;;;18.40;3.60;;;;;;;;;;6199974;23;20020;-87
2023/12/11 06:43:28;;;;;;;26.38;3.88;;;;;;;;;;6177753;23;20012;-87
2023/12/11 06:45:54;;;;;;;9.93;2.78;;;;;;;;;;6174470;23;20044;-87
2023/12/11 06:48:20;;;;;;;20.55;3.15;;;;;;;;;;6149244;23;20020;-88
2023/12/11 06:50:46;;;;;;;17.25;3.13;;;;;;;;;;6168317;23;20021;-89
2023/12/11 06:53:12;;;;;;;18.55;4.60;;;;;;;;;;6171350;23;20012;-89
2023/12/11 06:55:38;;;;;;;16.38;3.35;;;;;;;;;;6119565;23;20039;-90
2023/12/11 06:58:04;;;;;;;22.08;4.03;;;;;;;;;;6122220;23;20020;-89
2023/12/11 07:00:30;;;;;;;22.55;3.88;;;;;;;;;;6121246;23;20123;-89
2023/12/11 07:02:56;;;;;;;21.15;3.53;;;;;;;;;;6144805;23;20052;-89
2023/12/11 07:05:22;;;;;;;18.73;3.10;;;;;;;;;;6172557;23;20017;-88
2023/12/11 07:07:48;;;;;;;21.33;3.30;;;;;;;;;;6121605;23;20020;-89
2023/12/11 07:10:14;;;;;;;20.75;3.42;;;;;;;;;;6149957;23;20107;-90
2023/12/11 07:12:45;;;;;;;18.13;3.38;;;;;;;;;;6124883;23;20339;-90
2023/12/11 07:15:11;;;;;;;18.77;4.07;;;;;;;;;;6172273;23;20027;-89
2023/12/11 07:17:37;;;;;;;20.98;4.80;;;;;;;;;;6169833;23;20017;-88
2023/12/11 07:20:05;;;;;;;19.65;3.35;;;;;;;;;;6170468;23;20020;-89
2023/12/11 07:22:33;;;;;;;26.63;5.07;;;;;;;;;;6173132;23;20047;-88
2023/12/11 07:24:59;;;;;;;18.92;2.90;;;;;;;;;;6170453;23;20016;-89
2023/12/11 07:27:25;;;;;;;18.55;3.03;;;;;;;;;;6173690;23;20015;-89
2023/12/11 07:29:51;;;;;;;21.85;3.63;;;;;;;;;;6146797;23;20058;-88
2023/12/11 07:32:17;;;;;;;15.85;3.50;;;;;;;;;;6173724;23;20059;-89
2023/12/11 07:34:43;;;;;;;23.80;4.28;;;;;;;;;;6174258;23;20059;-89
2023/12/11 07:37:11;;;;;;;15.52;2.88;;;;;;;;;;6169816;23;20031;-88
2023/12/11 07:39:38;;;;;;;19.38;3.25;;;;;;;;;;6179361;23;20346;-89
2023/12/11 07:42:05;;;;;;;24.03;2.73;;;;;;;;;;6125425;23;20025;-88
2023/12/11 07:44:31;;;;;;;18.40;2.83;;;;;;;;;;6174498;23;20016;-89
2023/12/11 07:46:57;;;;;;;11.90;3.40;;;;;;;;;;6126178;23;20096;-88
2023/12/11 07:49:23;;;;;;;19.35;3.15;;;;;;;;;;6177028;23;20024;-88
2023/12/11 07:51:49;;;;;;;20.10;2.63;;;;;;;;;;6151243;23;20096;-88
2023/12/11 07:54:15;;;;;;;11.90;2.58;;;;;;;;;;6179915;23;20020;-88
2023/12/11 07:56:41;;;;;;;14.85;2.92;;;;;;;;;;6153954;23;20072;-88
2023/12/11 07:59:07;;;;;;;15.45;2.83;;;;;;;;;;6176000;23;20052;-88
2023/12/11 08:01:33;;;;;;;21.42;2.78;;;;;;;;;;6153973;23;20067;-88
2023/12/11 08:03:59;;;;;;;9.43;2.05;;;;;;;;;;6176947;23;20082;-88
2023/12/11 08:06:25;;;;;;;13.10;3.83;;;;;;;;;;6152845;23;20028;-88
2023/12/11 08:08:51;;;;;;;11.32;2.50;;;;;;;;;;6176048;23;20012;-89
2023/12/11 08:11:21;;;;;;;13.45;3.63;;;;;;;;;;6152767;23;20081;-89
2023/12/11 08:13:47;;;;;;;11.05;2.88;;;;;;;;;;6153025;23;20449;-89
2023/12/11 08:16:14;;;;;;;10.80;2.88;;;;;;;;;;6205397;23;20024;-88
2023/12/11 08:18:44;;;;;;;16.73;3.08;;;;;;;;;;6177912;23;20537;-89
2023/12/11 08:21:10;;;;;;;12.40;2.45;;;;;;;;;;6150948;23;20446;-89
2023/12/11 08:23:38;;;;;;;10.23;2.63;;;;;;;;;;6179662;23;20024;-88
2023/12/11 08:26:04;;;;;;;11.25;2.20;;;;;;;;;;6125521;23;20021;-88
2023/12/11 08:28:30;;;;;;;9.27;2.90;;;;;;;;;;6178392;23;20024;-89
2023/12/11 08:30:56;;;;;;;14.65;2.28;;;;;;;;;;6175639;23;20026;-88
2023/12/11 08:33:22;;;;;;;14.63;2.47;;;;;;;;;;6153348;23;20501;-89
2023/12/11 08:35:48;;;;;;;11.05;2.40;;;;;;;;;;6127864;23;20349;-89
2023/12/11 08:38:17;;;;;;;9.77;2.55;;;;;;;;;;6151587;23;20024;-89
2023/12/11 08:40:47;;;;;;;9.98;2.70;;;;;;;;;;6130017;23;20021;-89
2023/12/11 08:43:14;;;;;;;9.25;2.47;;;;;;;;;;6127670;23;20021;-89
2023/12/11 08:45:40;;;;;;;8.52;2.63;;;;;;;;;;6171198;23;20028;-89
2023/12/11 08:48:06;;;;;;;10.82;4.32;;;;;;;;;;6149308;23;20021;-88
2023/12/11 08:50:32;;;;;;;11.70;2.30;;;;;;;;;;6153488;23;20029;-88
2023/12/11 08:53:03;;;;;;;5.38;2.38;;;;;;;;;;6175193;23;20023;-88
2023/12/11 08:55:29;;;;;;;7.63;2.15;;;;;;;;;;6205180;23;20056;-88
2023/12/11 08:57:55;;;;;;;9.75;2.65;;;;;;;;;;6175070;23;20509;-88
2023/12/11 09:00:21;;;;;;;8.13;2.22;;;;;;;;;;6153462;23;20027;-88
2023/12/11 09:02:47;;;;;;;6.07;2.75;;;;;;;;;;6201136;23;20117;-88
2023/12/11 09:05:14;;;;;;;9.43;2.17;;;;;;;;;;6152758;23;20027;-89
2023/12/11 09:07:40;;;;;;;3.28;1.83;;;;;;;;;;6176555;23;20537;-88
2023/12/11 09:10:08;;;;;;;7.25;2.47;;;;;;;;;;6150468;23;20136;-89
2023/12/11 09:12:34;;;;;;;6.07;2.15;;;;;;;;;;6177502;23;20024;-88
2023/12/11 09:15:00;;;;;;;8.77;2.15;;;;;;;;;;6151159;23;20031;-88
2023/12/11 09:17:26;;;;;;;9.38;2.10;;;;;;;;;;6177722;23;20430;-88
2023/12/11 09:19:52;;;;;;;5.32;2.17;;;;;;;;;;6153338;23;20016;-88
2023/12/11 09:22:18;;;;;;;5.18;2.30;;;;;;;;;;6179186;23;20028;-88
2023/12/11 09:24:44;;;;;;;6.93;2.45;;;;;;;;;;6179339;23;20438;-88
2023/12/11 09:27:10;;;;;;;5.15;2.60;;;;;;;;;;6150790;23;20013;-89
2023/12/11 09:29:36;;;;;;;7.07;2.35;;;;;;;;;;6178265;23;20051;-89
2023/12/11 09:32:02;;;;;;;8.18;2.58;;;;;;;;;;6149714;23;20024;-89
2023/12/11 09:34:28;;;;;;;10.05;2.70;;;;;;;;;;6206090;23;20020;-89
2023/12/11 09:36:54;;;;;;;7.28;2.35;;;;;;;;;;6150372;23;20096;-89
2023/12/11 09:39:22;;;;;;;6.50;2.17;;;;;;;;;;6203475;23;20044;-88
2023/12/11 09:41:48;;;;;;;5.53;2.33;;;;;;;;;;6202721;23;20021;-88
2023/12/11 09:44:14;;;;;;;5.47;2.33;;;;;;;;;;6179584;23;20024;-88
2023/12/11 09:46:48;;;;;;;7.72;2.15;;;;;;;;;;6179353;23;20023;-88
2023/12/11 09:49:14;;;;;;;7.05;2.28;;;;;;;;;;6131356;23;20088;-88
2023/12/11 09:51:40;;;;;;;11.00;2.38;;;;;;;;;;6178484;23;20040;-89
2023/12/11 09:54:08;;;;;;;9.52;2.50;;;;;;;;;;6127935;23;20660;-88
2023/12/11 09:56:34;;;;;;;9.88;2.40;;;;;;;;;;6130308;23;20020;-88
2023/12/11 09:59:00;;;;;;;11.73;2.03;;;;;;;;;;6177993;23;20024;-88
2023/12/11 10:01:26;;;;;;;8.40;2.30;;;;;;;;;;6204603;23;20315;-88
2023/12/11 10:03:52;;;;;;;9.13;2.28;;;;;;;;;;6153231;23;20333;-88
2023/12/11 10:06:18;;;;;;;6.90;2.08;;;;;;;;;;6179205;23;20012;-88
2023/12/11 10:08:52;;;;;;;10.30;2.25;;;;;;;;;;6156375;23;20445;-87
2023/12/11 10:14:15;;;;;;;9.77;2.00;;;;;;;;;;6161873;23;20142;-88
2023/12/11 10:17:18;;;;;;;11.10;2.10;;;;;;;;;;6182065;23;20013;-88
2023/12/11 10:19:52;;;;;;;7.45;1.75;;;;;;;;;;6178110;23;20039;-88
2023/12/11 10:22:30;;;;;;;8.10;1.80;;;;;;;;;;6156023;23;20087;-88
2023/12/11 10:28:27;;;;;;;5.88;1.67;;;;;;;;;;6180478;23;20100;-88
2023/12/11 10:31:22;;;;;;;;;;;;;;;;;;;;;
2023/12/11 10:34:09;;;;;;;7.88;2.10;;;;;;;;;;6172475;23;20016;-88
2023/12/11 10:37:17;;;;;;;6.00;1.88;;;;;;;;;;6131471;23;20017;-88
2023/12/11 10:40:09;;;;;;;7.03;1.55;;;;;;;;;;6138008;23;20013;-88
2023/12/11 10:42:53;;;;;;;7.90;1.20;;;;;;;;;;6172074;23;20310;-88
2023/12/11 10:45:49;;;;;;;7.13;1.20;;;;;;;;;;6181065;23;20074;-88
2023/12/11 10:48:23;;;;;;;7.55;1.70;;;;;;;;;;6156898;23;20021;-88
2023/12/11 10:51:16;;;;;;;8.02;1.83;;;;;;;;;;6150731;23;20017;-88
2023/12/11 10:54:12;;;;;;;6.15;1.77;;;;;;;;;;6180644;23;20016;-87
2023/12/11 10:56:59;;;;;;;8.40;1.50;;;;;;;;;;6178441;23;20472;-88
2023/12/11 10:59:41;;;;;;;11.93;2.17;;;;;;;;;;6156286;23;20021;-88
2023/12/11 11:02:08;;;;;;;5.57;1.40;;;;;;;;;;6177112;23;20414;-87
2023/12/11 11:08:23;;;;;;;5.85;1.65;;;;;;;;;;6123566;23;20088;-87
2023/12/11 11:10:58;;;;;;;5.35;1.50;;;;;;;;;;6063543;23;20475;-87
2023/12/11 11:13:47;;;;;;;8.57;1.73;;;;;;;;;;6178281;23;20021;-88
2023/12/11 11:16:13;;;;;;;7.93;1.50;;;;;;;;;;6139981;23;20535;-87
2023/12/11 11:19:08;;;;;;;10.32;2.08;;;;;;;;;;6156063;23;20016;-87
2023/12/11 11:21:36;;;;;;;8.77;1.52;;;;;;;;;;6155390;23;20446;-88
2023/12/11 11:24:02;;;;;;;13.03;1.53;;;;;;;;;;6177592;23;20500;-88
2023/12/11 11:27:04;;;;;;;7.82;1.30;;;;;;;;;;6207167;23;20086;-88
2023/12/11 11:29:54;;;;;;;10.45;1.83;;;;;;;;;;6154957;23;20016;-88
2023/12/11 11:35:43;;;;;;;6.85;1.20;;;;;;;;;;6164654;23;20398;-88
2023/12/11 11:38:25;;;;;;;9.32;2.08;;;;;;;;;;6153450;23;20451;-88
2023/12/11 11:41:22;;;;;;;12.43;1.98;;;;;;;;;;6153990;23;20023;-88
2023/12/11 11:44:13;;;;;;;13.30;1.92;;;;;;;;;;6181806;23;20016;-88
2023/12/11 11:47:16;;;;;;;10.50;2.03;;;;;;;;;;6170702;23;20063;-88
2023/12/11 11:52:38;;;;;;;16.67;2.30;;;;;;;;;;6130828;23;20025;-88
2023/12/11 11:55:18;;;;;;;7.50;1.55;;;;;;;;;;6176332;23;20021;-88
2023/12/11 11:57:53;;;;;;;8.07;1.63;;;;;;;;;;6173751;23;20071;-88
2023/12/11 12:00:46;;;;;;;11.93;4.03;;;;;;;;;;6128238;23;20044;-87
2023/12/11 12:03:24;;;;;;;10.13;1.67;;;;;;;;;;6153984;23;20028;-88
2023/12/11 12:05:58;;;;;;;11.43;1.90;;;;;;;;;;6125017;23;20024;-88
2023/12/11 12:08:31;;;;;;;7.10;1.50;;;;;;;;;;6127873;23;20056;-88
2023/12/11 12:11:23;;;;;;;9.30;2.03;;;;;;;;;;6171189;23;20013;-88
2023/12/11 12:14:01;;;;;;;7.97;1.77;;;;;;;;;;6152509;23;20312;-88
2023/12/11 12:16:33;;;;;;;9.73;1.88;;;;;;;;;;6148096;23;20021;-88
2023/12/11 12:19:00;;;;;;;14.30;2.60;;;;;;;;;;6148042;23;20401;-88
2023/12/11 12:21:40;;;;;;;;;;;;;;;;;;6152516;23;20020;-88
2023/12/11 12:24:18;;;;;;;14.00;2.67;;;;;;;;;;6172368;23;19915;-87
2023/12/11 12:30:06;;;;;;;17.50;3.17;;;;;;;;;;6169116;23;20264;-87
2023/12/11 12:32:32;;;;;;;8.45;2.70;;;;;;;;;;6175479;23;20071;-87
2023/12/11 12:34:58;;;;;;;8.85;2.58;;;;;;;;;;6172081;23;20021;-87
2023/12/11 12:37:24;;;;;;;7.30;2.03;;;;;;;;;;6148801;23;20020;-87
2023/12/11 12:39:57;;;;;;;10.23;2.38;;;;;;;;;;6143548;23;20135;-87
2023/12/11 12:42:41;;;;;;;11.32;2.17;;;;;;;;;;6149785;23;20025;-87
2023/12/11 12:45:07;;;;;;;16.35;2.67;;;;;;;;;;6171399;23;20013;-88
2023/12/11 12:47:34;;;;;;;8.85;1.98;;;;;;;;;;6148747;23;20028;-88
2023/12/11 12:50:00;;;;;;;18.90;2.78;;;;;;;;;;6169538;23;20678;-87
2023/12/11 12:52:26;;;;;;;10.98;1.77;;;;;;;;;;6149472;23;20458;-87
2023/12/11 12:54:54;;;;;;;9.35;1.92;;;;;;;;;;6171354;23;20025;-87
2023/12/11 12:57:20;;;;;;;14.30;1.90;;;;;;;;;;6148295;23;20021;-87
2023/12/11 12:59:49;;;;;;;7.03;2.10;;;;;;;;;;6171297;23;20491;-88
2023/12/11 13:05:46;;;;;;;11.80;1.88;;;;;;;;;;6101903;23;20434;-87
2023/12/11 13:08:15;;;;;;;;;;;;;;;;;;6117000;23;20028;-87
2023/12/11 13:10:56;;;;;;;11.50;2.22;;;;;;;;;;6173288;23;19913;-88
2023/12/11 13:13:25;;;;;;;10.68;1.45;;;;;;;;;;6148352;23;20028;-87
2023/12/11 13:15:51;;;;;;;12.07;2.15;;;;;;;;;;6146711;23;20434;-87
2023/12/11 13:18:17;;;;;;;5.43;1.48;;;;;;;;;;6148579;23;20517;-88
2023/12/11 13:20:44;;;;;;;8.40;1.20;;;;;;;;;;6149899;23;20021;-87
2023/12/11 13:23:10;;;;;;;7.20;1.38;;;;;;;;;;6170240;23;20021;-87
2023/12/11 13:25:36;;;;;;;7.32;1.15;;;;;;;;;;6149924;23;20016;-87
2023/12/11 13:28:02;;;;;;;5.97;1.20;;;;;;;;;;6145257;23;20074;-88
2023/12/11 13:30:28;;;;;;;4.82;1.45;;;;;;;;;;6150133;23;20025;-88
2023/12/11 13:32:54;;;;;;;4.32;1.30;;;;;;;;;;6147870;23;20049;-88
2023/12/11 13:35:21;;;;;;;8.88;1.77;;;;;;;;;;6149465;23;20017;-88
2023/12/11 13:37:47;;;;;;;5.45;0.65;;;;;;;;;;6147117;23;20039;-88
2023/12/11 13:40:16;;;;;;;7.47;2.15;;;;;;;;;;6149949;23;20081;-88
2023/12/11 13:42:42;;;;;;;;;;;;;;;;;;6149417;23;20057;-88
2023/12/11 13:45:08;;;;;;;5.13;1.27;;;;;;;;;;6171522;23;19920;-88
2023/12/11 13:47:34;;;;;;;2.95;0.88;;;;;;;;;;6146886;23;20315;-88
2023/12/11 13:50:00;;;;;;;5.13;1.52;;;;;;;;;;6146956;23;20028;-88
2023/12/11 13:52:26;;;;;;;4.47;0.88;;;;;;;;;;6148246;23;20021;-88
2023/12/11 13:54:52;;;;;;;5.82;0.85;;;;;;;;;;6147335;23;20442;-87
2023/12/11 13:57:19;;;;;;;2.83;0.88;;;;;;;;;;6148311;23;20365;-87
2023/12/11 13:59:49;;;;;;;0.90;0.50;;;;;;;;;;6147755;23;20389;-87
2023/12/11 14:02:16;;;;;;;3.58;0.77;;;;;;;;;;6148856;23;20021;-87
2023/12/11 14:04:42;;;;;;;3.35;0.80;;;;;;;;;;6149038;23;20041;-87
2023/12/11 14:07:08;;;;;;;6.05;0.70;;;;;;;;;;6146794;23;20016;-87
2023/12/11 14:09:34;;;;;;;5.68;0.90;;;;;;;;;;6149782;23;20049;-88
2023/12/11 14:12:01;;;;;;;4.35;0.77;;;;;;;;;;6144826;23;20063;-87
2023/12/11 14:14:27;;;;;;;6.88;1.10;;;;;;;;;;6169593;23;20044;-87
2023/12/11 14:16:53;;;;;;;3.38;0.70;;;;;;;;;;6144975;23;20509;-87
2023/12/11 14:19:19;;;;;;;5.03;1.60;;;;;;;;;;6147264;23;20338;-87
2023/12/11 14:21:48;;;;;;;6.05;0.80;;;;;;;;;;6149773;23;20021;-88
2023/12/11 14:24:14;;;;;;;3.40;0.70;;;;;;;;;;6150868;23;20041;-87
2023/12/11 14:26:41;;;;;;;2.72;0.80;;;;;;;;;;6147875;23;20017;-87
2023/12/11 14:29:07;;;;;;;5.25;0.88;;;;;;;;;;6145713;23;20051;-87
2023/12/11 14:31:33;;;;;;;3.50;0.80;;;;;;;;;;6147703;23;20088;-87
2023/12/11 14:33:59;;;;;;;4.28;1.10;;;;;;;;;;6145309;23;20052;-87
2023/12/11 14:36:25;;;;;;;5.78;0.80;;;;;;;;;;6171861;23;20044;-87
2023/12/11 14:38:51;;;;;;;2.50;1.15;;;;;;;;;;6169597;23;20071;-88
2023/12/11 14:41:17;;;;;;;6.30;1.52;;;;;;;;;;6146475;23;20064;-87
2023/12/11 14:43:44;;;;;;;2.35;0.90;;;;;;;;;;6170109;23;20052;-87
2023/12/11 14:46:10;;;;;;;4.28;0.70;;;;;;;;;;6163634;23;20052;-88
2023/12/11 14:53:10;;;;;;;5.28;1.10;;;;;;;;;;6124919;23;20481;-88
2023/12/11 15:33:41;;;;;;;3.25;0.95;;;;;;;;;;5935094;23;20059;-87
2023/12/11 15:36:27;;;;;;;2.20;1.38;;;;;;;;;;6034963;23;20028;-88
2023/12/11 15:39:23;;;;;;;;;;;;;;;;;;;;;
2023/12/11 15:42:01;;;;;;;5.88;1.27;;;;;;;;;;6053660;23;20054;-87
2023/12/11 15:44:37;;;;;;;6.22;1.20;;;;;;;;;;6113561;23;20022;-87
2023/12/11 15:47:15;;;;;;;;;;;;;;;;;;6139434;23;20421;-87
2023/12/11 15:49:51;;;;;;;4.78;1.05;;;;;;;;;;6142705;23;20261;-87
2023/12/11 15:52:43;;;;;;;2.30;0.70;;;;;;;;;;6141808;23;20024;-87